sensor_id;sensor_type;location;lat;lon;timestamp;pressure;altitude;pressure_sealevel;temperature
7882;BMP180;3986;41.884;23.466;2022-11-15T00:00:31;92507.00;;;3.40
7882;BMP180;3986;41.884;23.466;2022-11-15T00:02:58;92510.00;;;3.40
7882;BMP180;3986;41.884;23.466;2022-11-15T00:05:25;92513.00;;;3.80
7882;BMP180;3986;41.884;23.466;2022-11-15T00:07:53;92508.00;;;3.90
7882;BMP180;3986;41.884;23.466;2022-11-15T00:10:20;92506.00;;;3.80
7882;BMP180;3986;41.884;23.466;2022-11-15T00:12:46;92507.00;;;3.80
7882;BMP180;3986;41.884;23.466;2022-11-15T00:15:13;92502.00;;;3.70
7882;BMP180;3986;41.884;23.466;2022-11-15T00:17:40;92505.00;;;3.70
7882;BMP180;3986;41.884;23.466;2022-11-15T00:20:08;92501.00;;;3.70
7882;BMP180;3986;41.884;23.466;2022-11-15T00:22:35;92499.00;;;3.70
7882;BMP180;3986;41.884;23.466;2022-11-15T00:25:04;92503.00;;;3.70
7882;BMP180;3986;41.884;23.466;2022-11-15T00:27:31;92509.00;;;3.60
7882;BMP180;3986;41.884;23.466;2022-11-15T00:29:57;92505.00;;;3.70
7882;BMP180;3986;41.884;23.466;2022-11-15T00:32:24;92504.00;;;3.50
7882;BMP180;3986;41.884;23.466;2022-11-15T00:34:51;92494.00;;;3.50
7882;BMP180;3986;41.884;23.466;2022-11-15T00:37:18;92512.00;;;2.60
7882;BMP180;3986;41.884;23.466;2022-11-15T00:39:44;92492.00;;;2.20
7882;BMP180;3986;41.884;23.466;2022-11-15T00:42:13;92498.00;;;2.60
7882;BMP180;3986;41.884;23.466;2022-11-15T00:44:39;92491.00;;;2.70
7882;BMP180;3986;41.884;23.466;2022-11-15T00:47:06;92492.00;;;2.80
7882;BMP180;3986;41.884;23.466;2022-11-15T00:49:33;92486.00;;;2.80
7882;BMP180;3986;41.884;23.466;2022-11-15T00:52:00;92487.00;;;2.60
7882;BMP180;3986;41.884;23.466;2022-11-15T00:54:26;92479.00;;;3.00
7882;BMP180;3986;41.884;23.466;2022-11-15T00:56:53;92481.00;;;3.30
7882;BMP180;3986;41.884;23.466;2022-11-15T00:59:21;92480.00;;;3.00
7882;BMP180;3986;41.884;23.466;2022-11-15T01:01:48;92475.00;;;3.20
7882;BMP180;3986;41.884;23.466;2022-11-15T01:04:15;92475.00;;;3.30
7882;BMP180;3986;41.884;23.466;2022-11-15T01:06:42;92478.00;;;3.30
7882;BMP180;3986;41.884;23.466;2022-11-15T01:09:08;92488.00;;;3.10
7882;BMP180;3986;41.884;23.466;2022-11-15T01:11:35;92482.00;;;3.20
7882;BMP180;3986;41.884;23.466;2022-11-15T01:14:02;92477.00;;;2.20
7882;BMP180;3986;41.884;23.466;2022-11-15T01:16:30;92480.00;;;2.00
7882;BMP180;3986;41.884;23.466;2022-11-15T01:18:58;92488.00;;;2.50
7882;BMP180;3986;41.884;23.466;2022-11-15T01:21:25;92466.00;;;2.90
7882;BMP180;3986;41.884;23.466;2022-11-15T01:23:53;92469.00;;;3.00
7882;BMP180;3986;41.884;23.466;2022-11-15T01:26:21;92475.00;;;3.00
7882;BMP180;3986;41.884;23.466;2022-11-15T01:28:47;92473.00;;;3.10
7882;BMP180;3986;41.884;23.466;2022-11-15T01:31:17;92474.00;;;3.20
7882;BMP180;3986;41.884;23.466;2022-11-15T01:33:46;92474.00;;;3.20
7882;BMP180;3986;41.884;23.466;2022-11-15T01:36:15;92478.00;;;3.10
7882;BMP180;3986;41.884;23.466;2022-11-15T01:38:42;92472.00;;;2.70
7882;BMP180;3986;41.884;23.466;2022-11-15T01:41:15;92466.00;;;2.80
7882;BMP180;3986;41.884;23.466;2022-11-15T01:43:43;92475.00;;;3.00
7882;BMP180;3986;41.884;23.466;2022-11-15T01:46:21;92466.00;;;3.00
7882;BMP180;3986;41.884;23.466;2022-11-15T01:48:52;92466.00;;;3.00
7882;BMP180;3986;41.884;23.466;2022-11-15T01:51:21;92462.00;;;2.90
7882;BMP180;3986;41.884;23.466;2022-11-15T01:53:51;92471.00;;;3.00
7882;BMP180;3986;41.884;23.466;2022-11-15T01:56:23;92467.00;;;2.90
7882;BMP180;3986;41.884;23.466;2022-11-15T01:58:53;92462.00;;;2.80
7882;BMP180;3986;41.884;23.466;2022-11-15T02:01:22;92463.00;;;2.70
7882;BMP180;3986;41.884;23.466;2022-11-15T02:03:56;92460.00;;;2.80
7882;BMP180;3986;41.884;23.466;2022-11-15T02:06:24;92468.00;;;2.90
7882;BMP180;3986;41.884;23.466;2022-11-15T02:08:51;92474.00;;;2.90
7882;BMP180;3986;41.884;23.466;2022-11-15T02:11:18;92463.00;;;2.90
7882;BMP180;3986;41.884;23.466;2022-11-15T02:13:45;92466.00;;;2.30
7882;BMP180;3986;41.884;23.466;2022-11-15T02:16:18;92467.00;;;2.40
7882;BMP180;3986;41.884;23.466;2022-11-15T02:18:58;92466.00;;;2.10
7882;BMP180;3986;41.884;23.466;2022-11-15T02:21:30;92472.00;;;2.10
7882;BMP180;3986;41.884;23.466;2022-11-15T02:24:16;92461.00;;;2.00
7882;BMP180;3986;41.884;23.466;2022-11-15T02:30:03;92468.00;;;2.00
7882;BMP180;3986;41.884;23.466;2022-11-15T02:32:36;92407.00;;;2.00
7882;BMP180;3986;41.884;23.466;2022-11-15T02:35:15;92455.00;;;1.90
7882;BMP180;3986;41.884;23.466;2022-11-15T02:37:46;92453.00;;;2.00
7882;BMP180;3986;41.884;23.466;2022-11-15T02:40:20;92481.00;;;2.20
7882;BMP180;3986;41.884;23.466;2022-11-15T02:42:53;92449.00;;;2.10
7882;BMP180;3986;41.884;23.466;2022-11-15T02:45:44;92451.00;;;1.60
7882;BMP180;3986;41.884;23.466;2022-11-15T02:48:14;92460.00;;;1.30
7882;BMP180;3986;41.884;23.466;2022-11-15T02:50:42;92452.00;;;1.00
7882;BMP180;3986;41.884;23.466;2022-11-15T02:53:10;92359.00;;;0.90
7882;BMP180;3986;41.884;23.466;2022-11-15T02:55:38;92393.00;;;1.30
7882;BMP180;3986;41.884;23.466;2022-11-15T02:58:35;92457.00;;;1.70
7882;BMP180;3986;41.884;23.466;2022-11-15T03:01:12;92457.00;;;1.90
7882;BMP180;3986;41.884;23.466;2022-11-15T03:03:52;92462.00;;;2.00
7882;BMP180;3986;41.884;23.466;2022-11-15T03:06:28;92451.00;;;2.00
7882;BMP180;3986;41.884;23.466;2022-11-15T03:09:02;92445.00;;;1.40
7882;BMP180;3986;41.884;23.466;2022-11-15T03:11:34;92449.00;;;1.30
7882;BMP180;3986;41.884;23.466;2022-11-15T03:14:08;92455.00;;;1.80
7882;BMP180;3986;41.884;23.466;2022-11-15T03:16:41;92446.00;;;1.60
7882;BMP180;3986;41.884;23.466;2022-11-15T03:19:16;92448.00;;;1.60
7882;BMP180;3986;41.884;23.466;2022-11-15T03:21:44;92454.00;;;1.80
7882;BMP180;3986;41.884;23.466;2022-11-15T03:24:14;92483.00;;;1.60
7882;BMP180;3986;41.884;23.466;2022-11-15T03:26:44;92457.00;;;1.70
7882;BMP180;3986;41.884;23.466;2022-11-15T03:29:13;92448.00;;;1.60
7882;BMP180;3986;41.884;23.466;2022-11-15T03:31:45;92463.00;;;1.60
7882;BMP180;3986;41.884;23.466;2022-11-15T03:34:24;92435.00;;;1.50
7882;BMP180;3986;41.884;23.466;2022-11-15T03:36:53;92438.00;;;1.50
7882;BMP180;3986;41.884;23.466;2022-11-15T03:39:20;92440.00;;;1.40
7882;BMP180;3986;41.884;23.466;2022-11-15T03:41:50;92434.00;;;1.40
7882;BMP180;3986;41.884;23.466;2022-11-15T03:44:30;92433.00;;;1.20
7882;BMP180;3986;41.884;23.466;2022-11-15T03:47:03;92446.00;;;1.10
7882;BMP180;3986;41.884;23.466;2022-11-15T03:49:33;92428.00;;;1.10
7882;BMP180;3986;41.884;23.466;2022-11-15T03:52:02;92395.00;;;1.10
7882;BMP180;3986;41.884;23.466;2022-11-15T03:54:29;92454.00;;;1.20
7882;BMP180;3986;41.884;23.466;2022-11-15T03:56:56;92418.00;;;1.30
7882;BMP180;3986;41.884;23.466;2022-11-15T03:59:23;92422.00;;;1.30
7882;BMP180;3986;41.884;23.466;2022-11-15T04:01:50;92427.00;;;1.30
7882;BMP180;3986;41.884;23.466;2022-11-15T04:04:17;92415.00;;;1.40
7882;BMP180;3986;41.884;23.466;2022-11-15T04:06:45;92423.00;;;1.20
7882;BMP180;3986;41.884;23.466;2022-11-15T04:09:12;92425.00;;;1.30
7882;BMP180;3986;41.884;23.466;2022-11-15T04:11:38;92413.00;;;1.10
7882;BMP180;3986;41.884;23.466;2022-11-15T04:14:05;92422.00;;;1.20
7882;BMP180;3986;41.884;23.466;2022-11-15T04:16:32;92412.00;;;1.00
7882;BMP180;3986;41.884;23.466;2022-11-15T04:18:58;92406.00;;;1.00
7882;BMP180;3986;41.884;23.466;2022-11-15T04:21:44;92405.00;;;1.10
7882;BMP180;3986;41.884;23.466;2022-11-15T04:24:28;92405.00;;;1.00
7882;BMP180;3986;41.884;23.466;2022-11-15T04:26:55;92404.00;;;1.00
7882;BMP180;3986;41.884;23.466;2022-11-15T04:29:22;92393.00;;;0.90
7882;BMP180;3986;41.884;23.466;2022-11-15T04:32:00;92400.00;;;0.80
7882;BMP180;3986;41.884;23.466;2022-11-15T04:34:27;92399.00;;;0.60
7882;BMP180;3986;41.884;23.466;2022-11-15T04:36:55;92400.00;;;0.60
7882;BMP180;3986;41.884;23.466;2022-11-15T04:39:42;92387.00;;;0.70
7882;BMP180;3986;41.884;23.466;2022-11-15T04:42:10;92394.00;;;0.30
7882;BMP180;3986;41.884;23.466;2022-11-15T04:44:37;92397.00;;;0.60
7882;BMP180;3986;41.884;23.466;2022-11-15T04:47:04;92390.00;;;0.60
7882;BMP180;3986;41.884;23.466;2022-11-15T04:49:31;92393.00;;;0.50
7882;BMP180;3986;41.884;23.466;2022-11-15T04:51:59;92395.00;;;0.40
7882;BMP180;3986;41.884;23.466;2022-11-15T04:54:26;92395.00;;;0.40
7882;BMP180;3986;41.884;23.466;2022-11-15T04:56:53;92309.00;;;0.70
7882;BMP180;3986;41.884;23.466;2022-11-15T04:59:20;92391.00;;;0.70
7882;BMP180;3986;41.884;23.466;2022-11-15T05:01:46;92383.00;;;0.90
7882;BMP180;3986;41.884;23.466;2022-11-15T05:04:13;92377.00;;;0.70
7882;BMP180;3986;41.884;23.466;2022-11-15T05:06:45;92413.00;;;0.90
7882;BMP180;3986;41.884;23.466;2022-11-15T05:09:13;92375.00;;;0.70
7882;BMP180;3986;41.884;23.466;2022-11-15T05:11:41;92386.00;;;0.20
7882;BMP180;3986;41.884;23.466;2022-11-15T05:14:08;92403.00;;;0.10
7882;BMP180;3986;41.884;23.466;2022-11-15T05:16:35;92375.00;;;0.50
7882;BMP180;3986;41.884;23.466;2022-11-15T05:19:02;92383.00;;;0.80
7882;BMP180;3986;41.884;23.466;2022-11-15T05:21:30;92368.00;;;0.90
7882;BMP180;3986;41.884;23.466;2022-11-15T05:23:56;92373.00;;;1.10
7882;BMP180;3986;41.884;23.466;2022-11-15T05:26:25;92367.00;;;1.00
7882;BMP180;3986;41.884;23.466;2022-11-15T05:28:53;92368.00;;;0.90
7882;BMP180;3986;41.884;23.466;2022-11-15T05:31:20;92411.00;;;1.10
7882;BMP180;3986;41.884;23.466;2022-11-15T05:33:48;92378.00;;;1.10
7882;BMP180;3986;41.884;23.466;2022-11-15T05:36:20;92382.00;;;1.40
7882;BMP180;3986;41.884;23.466;2022-11-15T05:38:49;92384.00;;;1.50
7882;BMP180;3986;41.884;23.466;2022-11-15T05:41:18;92383.00;;;1.50
7882;BMP180;3986;41.884;23.466;2022-11-15T05:43:48;92388.00;;;1.40
7882;BMP180;3986;41.884;23.466;2022-11-15T05:46:16;92393.00;;;1.30
7882;BMP180;3986;41.884;23.466;2022-11-15T05:48:46;92415.00;;;1.00
7882;BMP180;3986;41.884;23.466;2022-11-15T05:51:15;92401.00;;;0.90
7882;BMP180;3986;41.884;23.466;2022-11-15T05:53:44;92399.00;;;1.30
7882;BMP180;3986;41.884;23.466;2022-11-15T05:56:12;92403.00;;;1.40
7882;BMP180;3986;41.884;23.466;2022-11-15T05:58:39;92397.00;;;1.50
7882;BMP180;3986;41.884;23.466;2022-11-15T06:01:07;92397.00;;;1.30
7882;BMP180;3986;41.884;23.466;2022-11-15T06:03:34;92393.00;;;1.40
7882;BMP180;3986;41.884;23.466;2022-11-15T06:09:05;92397.00;;;1.10
7882;BMP180;3986;41.884;23.466;2022-11-15T06:11:32;92398.00;;;1.20
7882;BMP180;3986;41.884;23.466;2022-11-15T06:13:59;92399.00;;;1.40
7882;BMP180;3986;41.884;23.466;2022-11-15T06:16:25;92406.00;;;1.80
7882;BMP180;3986;41.884;23.466;2022-11-15T06:18:52;92402.00;;;1.70
7882;BMP180;3986;41.884;23.466;2022-11-15T06:21:19;92393.00;;;2.10
7882;BMP180;3986;41.884;23.466;2022-11-15T06:23:46;92399.00;;;2.10
7882;BMP180;3986;41.884;23.466;2022-11-15T06:26:14;92395.00;;;2.20
7882;BMP180;3986;41.884;23.466;2022-11-15T06:28:41;92390.00;;;2.40
7882;BMP180;3986;41.884;23.466;2022-11-15T06:31:09;92363.00;;;2.50
7882;BMP180;3986;41.884;23.466;2022-11-15T06:33:37;92334.00;;;2.10
7882;BMP180;3986;41.884;23.466;2022-11-15T06:36:05;92393.00;;;2.80
7882;BMP180;3986;41.884;23.466;2022-11-15T06:38:33;92395.00;;;2.50
7882;BMP180;3986;41.884;23.466;2022-11-15T06:41:05;92397.00;;;2.90
7882;BMP180;3986;41.884;23.466;2022-11-15T06:43:33;92402.00;;;2.70
7882;BMP180;3986;41.884;23.466;2022-11-15T06:46:00;92365.00;;;2.70
7882;BMP180;3986;41.884;23.466;2022-11-15T06:48:28;92395.00;;;2.70
7882;BMP180;3986;41.884;23.466;2022-11-15T06:50:57;92396.00;;;2.80
7882;BMP180;3986;41.884;23.466;2022-11-15T06:53:25;92400.00;;;2.70
7882;BMP180;3986;41.884;23.466;2022-11-15T06:55:57;92423.00;;;3.00
7882;BMP180;3986;41.884;23.466;2022-11-15T06:58:24;92388.00;;;2.80
7882;BMP180;3986;41.884;23.466;2022-11-15T07:00:53;92388.00;;;3.20
7882;BMP180;3986;41.884;23.466;2022-11-15T07:03:20;92392.00;;;3.00
7882;BMP180;3986;41.884;23.466;2022-11-15T07:05:51;92378.00;;;3.30
7882;BMP180;3986;41.884;23.466;2022-11-15T07:08:19;92390.00;;;3.60
7882;BMP180;3986;41.884;23.466;2022-11-15T07:10:46;92389.00;;;3.80
7882;BMP180;3986;41.884;23.466;2022-11-15T07:13:13;92376.00;;;3.10
7882;BMP180;3986;41.884;23.466;2022-11-15T07:15:40;92383.00;;;3.20
7882;BMP180;3986;41.884;23.466;2022-11-15T07:18:09;92389.00;;;3.30
7882;BMP180;3986;41.884;23.466;2022-11-15T07:20:36;92388.00;;;3.60
7882;BMP180;3986;41.884;23.466;2022-11-15T07:23:04;92375.00;;;3.80
7882;BMP180;3986;41.884;23.466;2022-11-15T07:25:31;92375.00;;;3.70
7882;BMP180;3986;41.884;23.466;2022-11-15T07:27:58;92382.00;;;4.00
7882;BMP180;3986;41.884;23.466;2022-11-15T07:30:26;92385.00;;;4.20
7882;BMP180;3986;41.884;23.466;2022-11-15T07:32:54;92406.00;;;4.70
7882;BMP180;3986;41.884;23.466;2022-11-15T07:35:22;92378.00;;;5.00
7882;BMP180;3986;41.884;23.466;2022-11-15T07:37:56;92372.00;;;5.60
7882;BMP180;3986;41.884;23.466;2022-11-15T07:40:24;92401.00;;;4.00
7882;BMP180;3986;41.884;23.466;2022-11-15T07:42:51;92368.00;;;4.00
7882;BMP180;3986;41.884;23.466;2022-11-15T07:45:21;92373.00;;;4.50
7882;BMP180;3986;41.884;23.466;2022-11-15T07:47:49;92362.00;;;6.10
7882;BMP180;3986;41.884;23.466;2022-11-15T07:50:16;92362.00;;;7.00
7882;BMP180;3986;41.884;23.466;2022-11-15T07:52:45;92365.00;;;7.40
7882;BMP180;3986;41.884;23.466;2022-11-15T07:55:12;92365.00;;;7.90
7882;BMP180;3986;41.884;23.466;2022-11-15T07:57:39;92382.00;;;8.00
7882;BMP180;3986;41.884;23.466;2022-11-15T08:00:06;92365.00;;;8.00
7882;BMP180;3986;41.884;23.466;2022-11-15T08:02:33;92358.00;;;8.80
7882;BMP180;3986;41.884;23.466;2022-11-15T08:05:00;92357.00;;;8.40
7882;BMP180;3986;41.884;23.466;2022-11-15T08:07:29;92354.00;;;9.80
7882;BMP180;3986;41.884;23.466;2022-11-15T08:09:58;92375.00;;;10.80
7882;BMP180;3986;41.884;23.466;2022-11-15T08:12:26;92356.00;;;11.50
7882;BMP180;3986;41.884;23.466;2022-11-15T08:14:54;92347.00;;;11.90
7882;BMP180;3986;41.884;23.466;2022-11-15T08:17:21;92352.00;;;12.50
7882;BMP180;3986;41.884;23.466;2022-11-15T08:19:49;92345.00;;;13.30
7882;BMP180;3986;41.884;23.466;2022-11-15T08:22:15;92345.00;;;13.60
7882;BMP180;3986;41.884;23.466;2022-11-15T08:24:43;92366.00;;;14.00
7882;BMP180;3986;41.884;23.466;2022-11-15T08:27:11;92338.00;;;15.10
7882;BMP180;3986;41.884;23.466;2022-11-15T08:29:42;92344.00;;;16.10
7882;BMP180;3986;41.884;23.466;2022-11-15T08:32:09;92338.00;;;16.80
7882;BMP180;3986;41.884;23.466;2022-11-15T08:34:36;92359.00;;;17.80
7882;BMP180;3986;41.884;23.466;2022-11-15T08:37:03;92339.00;;;18.60
7882;BMP180;3986;41.884;23.466;2022-11-15T08:39:30;92350.00;;;19.30
7882;BMP180;3986;41.884;23.466;2022-11-15T08:41:57;92327.00;;;19.00
7882;BMP180;3986;41.884;23.466;2022-11-15T08:44:25;92348.00;;;19.70
7882;BMP180;3986;41.884;23.466;2022-11-15T08:46:52;92327.00;;;20.10
7882;BMP180;3986;41.884;23.466;2022-11-15T08:49:19;92329.00;;;19.80
7882;BMP180;3986;41.884;23.466;2022-11-15T08:51:46;92301.00;;;21.70
7882;BMP180;3986;41.884;23.466;2022-11-15T08:54:13;92321.00;;;22.00
7882;BMP180;3986;41.884;23.466;2022-11-15T08:56:40;92325.00;;;23.20
7882;BMP180;3986;41.884;23.466;2022-11-15T08:59:07;92328.00;;;22.80
7882;BMP180;3986;41.884;23.466;2022-11-15T09:01:35;92328.00;;;23.80
7882;BMP180;3986;41.884;23.466;2022-11-15T09:04:02;92320.00;;;24.80
7882;BMP180;3986;41.884;23.466;2022-11-15T09:06:30;92317.00;;;24.90
7882;BMP180;3986;41.884;23.466;2022-11-15T09:08:57;92321.00;;;25.20
7882;BMP180;3986;41.884;23.466;2022-11-15T09:11:23;92308.00;;;26.90
7882;BMP180;3986;41.884;23.466;2022-11-15T09:13:52;92314.00;;;26.80
7882;BMP180;3986;41.884;23.466;2022-11-15T09:16:19;92309.00;;;26.90
7882;BMP180;3986;41.884;23.466;2022-11-15T09:18:47;92315.00;;;27.50
7882;BMP180;3986;41.884;23.466;2022-11-15T09:21:14;92306.00;;;27.10
7882;BMP180;3986;41.884;23.466;2022-11-15T09:23:41;92291.00;;;27.50
7882;BMP180;3986;41.884;23.466;2022-11-15T09:26:08;92303.00;;;28.00
7882;BMP180;3986;41.884;23.466;2022-11-15T09:28:36;92296.00;;;28.70
7882;BMP180;3986;41.884;23.466;2022-11-15T09:31:05;92299.00;;;29.70
7882;BMP180;3986;41.884;23.466;2022-11-15T09:33:32;92294.00;;;30.40
7882;BMP180;3986;41.884;23.466;2022-11-15T09:36:06;92289.00;;;30.30
7882;BMP180;3986;41.884;23.466;2022-11-15T09:38:33;92285.00;;;30.30
7882;BMP180;3986;41.884;23.466;2022-11-15T09:44:19;92286.00;;;30.00
7882;BMP180;3986;41.884;23.466;2022-11-15T09:46:58;92274.00;;;30.60
7882;BMP180;3986;41.884;23.466;2022-11-15T09:49:29;92272.00;;;30.70
7882;BMP180;3986;41.884;23.466;2022-11-15T09:51:58;92264.00;;;29.60
7882;BMP180;3986;41.884;23.466;2022-11-15T09:54:28;92265.00;;;30.90
7882;BMP180;3986;41.884;23.466;2022-11-15T09:57:04;92273.00;;;33.00
7882;BMP180;3986;41.884;23.466;2022-11-15T09:59:51;92265.00;;;33.00
7882;BMP180;3986;41.884;23.466;2022-11-15T10:02:34;92254.00;;;30.00
7882;BMP180;3986;41.884;23.466;2022-11-15T10:05:07;92252.00;;;30.10
7882;BMP180;3986;41.884;23.466;2022-11-15T10:07:48;92259.00;;;32.80
7882;BMP180;3986;41.884;23.466;2022-11-15T10:10:22;92251.00;;;33.20
7882;BMP180;3986;41.884;23.466;2022-11-15T10:12:51;92245.00;;;32.00
7882;BMP180;3986;41.884;23.466;2022-11-15T10:15:19;92247.00;;;31.60
7882;BMP180;3986;41.884;23.466;2022-11-15T10:18:15;92244.00;;;31.50
7882;BMP180;3986;41.884;23.466;2022-11-15T10:20:48;92246.00;;;31.30
7882;BMP180;3986;41.884;23.466;2022-11-15T10:23:18;92230.00;;;32.30
7882;BMP180;3986;41.884;23.466;2022-11-15T10:25:47;92230.00;;;26.60
7882;BMP180;3986;41.884;23.466;2022-11-15T10:28:19;92233.00;;;28.60
7882;BMP180;3986;41.884;23.466;2022-11-15T10:30:52;92217.00;;;27.00
7882;BMP180;3986;41.884;23.466;2022-11-15T10:33:25;92217.00;;;32.30
7882;BMP180;3986;41.884;23.466;2022-11-15T10:36:18;92212.00;;;33.20
7882;BMP180;3986;41.884;23.466;2022-11-15T10:38:56;92207.00;;;32.50
7882;BMP180;3986;41.884;23.466;2022-11-15T10:41:30;92201.00;;;32.30
7882;BMP180;3986;41.884;23.466;2022-11-15T10:47:27;92176.00;;;31.70
7882;BMP180;3986;41.884;23.466;2022-11-15T10:50:04;92181.00;;;29.30
7882;BMP180;3986;41.884;23.466;2022-11-15T10:52:34;92187.00;;;31.90
7882;BMP180;3986;41.884;23.466;2022-11-15T10:55:19;92179.00;;;33.00
7882;BMP180;3986;41.884;23.466;2022-11-15T10:57:50;92171.00;;;32.50
7882;BMP180;3986;41.884;23.466;2022-11-15T11:00:28;92166.00;;;31.30
7882;BMP180;3986;41.884;23.466;2022-11-15T11:02:59;92161.00;;;34.00
7882;BMP180;3986;41.884;23.466;2022-11-15T11:05:29;92167.00;;;34.50
7882;BMP180;3986;41.884;23.466;2022-11-15T11:07:59;92153.00;;;33.90
7882;BMP180;3986;41.884;23.466;2022-11-15T11:10:28;92152.00;;;31.10
7882;BMP180;3986;41.884;23.466;2022-11-15T11:12:55;92147.00;;;31.60
7882;BMP180;3986;41.884;23.466;2022-11-15T11:15:24;92148.00;;;32.80
7882;BMP180;3986;41.884;23.466;2022-11-15T11:18:06;92149.00;;;33.60
7882;BMP180;3986;41.884;23.466;2022-11-15T11:20:39;92140.00;;;32.10
7882;BMP180;3986;41.884;23.466;2022-11-15T11:23:29;92139.00;;;31.30
7882;BMP180;3986;41.884;23.466;2022-11-15T11:26:12;92127.00;;;30.80
7882;BMP180;3986;41.884;23.466;2022-11-15T11:28:50;92125.00;;;31.50
7882;BMP180;3986;41.884;23.466;2022-11-15T11:31:24;92117.00;;;31.80
7882;BMP180;3986;41.884;23.466;2022-11-15T11:34:02;92117.00;;;31.50
7882;BMP180;3986;41.884;23.466;2022-11-15T11:36:40;92116.00;;;31.90
7882;BMP180;3986;41.884;23.466;2022-11-15T11:39:22;92109.00;;;31.20
7882;BMP180;3986;41.884;23.466;2022-11-15T11:41:58;92100.00;;;30.80
7882;BMP180;3986;41.884;23.466;2022-11-15T11:44:33;92099.00;;;30.10
7882;BMP180;3986;41.884;23.466;2022-11-15T11:47:01;92101.00;;;30.20
7882;BMP180;3986;41.884;23.466;2022-11-15T11:49:33;92103.00;;;29.70
7882;BMP180;3986;41.884;23.466;2022-11-15T11:52:04;92092.00;;;29.20
7882;BMP180;3986;41.884;23.466;2022-11-15T11:54:39;92089.00;;;28.70
7882;BMP180;3986;41.884;23.466;2022-11-15T11:57:15;92087.00;;;28.60
7882;BMP180;3986;41.884;23.466;2022-11-15T11:59:49;92080.00;;;27.90
7882;BMP180;3986;41.884;23.466;2022-11-15T12:02:20;92077.00;;;27.70
7882;BMP180;3986;41.884;23.466;2022-11-15T12:04:53;92081.00;;;27.00
7882;BMP180;3986;41.884;23.466;2022-11-15T12:07:24;92031.00;;;27.20
7882;BMP180;3986;41.884;23.466;2022-11-15T12:09:56;92060.00;;;27.00
7882;BMP180;3986;41.884;23.466;2022-11-15T12:12:30;92058.00;;;27.50
7882;BMP180;3986;41.884;23.466;2022-11-15T12:15:02;92055.00;;;27.80
7882;BMP180;3986;41.884;23.466;2022-11-15T12:17:32;92049.00;;;27.10
7882;BMP180;3986;41.884;23.466;2022-11-15T12:19:59;92065.00;;;27.60
7882;BMP180;3986;41.884;23.466;2022-11-15T12:22:35;92042.00;;;26.40
7882;BMP180;3986;41.884;23.466;2022-11-15T12:25:06;92035.00;;;27.90
7882;BMP180;3986;41.884;23.466;2022-11-15T12:27:38;92035.00;;;27.80
7882;BMP180;3986;41.884;23.466;2022-11-15T12:30:11;92037.00;;;27.10
7882;BMP180;3986;41.884;23.466;2022-11-15T12:32:39;92029.00;;;27.10
7882;BMP180;3986;41.884;23.466;2022-11-15T12:35:23;92021.00;;;26.30
7882;BMP180;3986;41.884;23.466;2022-11-15T12:37:51;91927.00;;;26.20
7882;BMP180;3986;41.884;23.466;2022-11-15T12:40:32;91847.00;;;27.10
7882;BMP180;3986;41.884;23.466;2022-11-15T12:43:04;91996.00;;;27.20
7882;BMP180;3986;41.884;23.466;2022-11-15T12:45:33;92018.00;;;27.10
7882;BMP180;3986;41.884;23.466;2022-11-15T12:51:04;92003.00;;;23.70
7882;BMP180;3986;41.884;23.466;2022-11-15T12:53:33;92000.00;;;24.90
7882;BMP180;3986;41.884;23.466;2022-11-15T12:56:22;92000.00;;;25.30
7882;BMP180;3986;41.884;23.466;2022-11-15T12:58:53;92003.00;;;25.30
7882;BMP180;3986;41.884;23.466;2022-11-15T13:04:33;91985.00;;;24.70
7882;BMP180;3986;41.884;23.466;2022-11-15T13:07:02;91990.00;;;24.20
7882;BMP180;3986;41.884;23.466;2022-11-15T13:09:54;91977.00;;;24.40
7882;BMP180;3986;41.884;23.466;2022-11-15T13:15:54;91977.00;;;24.30
7882;BMP180;3986;41.884;23.466;2022-11-15T13:18:37;91977.00;;;23.90
7882;BMP180;3986;41.884;23.466;2022-11-15T13:21:18;91969.00;;;23.90
7882;BMP180;3986;41.884;23.466;2022-11-15T13:24:03;91975.00;;;23.60
7882;BMP180;3986;41.884;23.466;2022-11-15T13:26:30;91968.00;;;23.30
7882;BMP180;3986;41.884;23.466;2022-11-15T13:28:57;91972.00;;;23.70
7882;BMP180;3986;41.884;23.466;2022-11-15T13:31:35;91961.00;;;23.60
7882;BMP180;3986;41.884;23.466;2022-11-15T13:34:13;91963.00;;;23.30
7882;BMP180;3986;41.884;23.466;2022-11-15T13:36:42;91961.00;;;23.10
7882;BMP180;3986;41.884;23.466;2022-11-15T13:39:23;91962.00;;;23.10
7882;BMP180;3986;41.884;23.466;2022-11-15T13:41:51;91959.00;;;22.60
7882;BMP180;3986;41.884;23.466;2022-11-15T13:44:21;91957.00;;;22.90
7882;BMP180;3986;41.884;23.466;2022-11-15T13:47:00;91951.00;;;22.60
7882;BMP180;3986;41.884;23.466;2022-11-15T13:49:29;91956.00;;;22.50
7882;BMP180;3986;41.884;23.466;2022-11-15T13:51:57;91956.00;;;22.40
7882;BMP180;3986;41.884;23.466;2022-11-15T13:54:26;91950.00;;;22.00
7882;BMP180;3986;41.884;23.466;2022-11-15T13:56:58;91949.00;;;21.90
7882;BMP180;3986;41.884;23.466;2022-11-15T13:59:29;91948.00;;;21.30
7882;BMP180;3986;41.884;23.466;2022-11-15T14:02:02;91813.00;;;20.60
7882;BMP180;3986;41.884;23.466;2022-11-15T14:04:30;91990.00;;;19.40
7882;BMP180;3986;41.884;23.466;2022-11-15T14:07:00;91949.00;;;17.80
7882;BMP180;3986;41.884;23.466;2022-11-15T14:09:33;91948.00;;;18.10
7882;BMP180;3986;41.884;23.466;2022-11-15T14:12:19;91953.00;;;18.50
7882;BMP180;3986;41.884;23.466;2022-11-15T14:14:48;91959.00;;;17.90
7882;BMP180;3986;41.884;23.466;2022-11-15T14:17:20;91949.00;;;17.10
7882;BMP180;3986;41.884;23.466;2022-11-15T14:19:49;91945.00;;;16.90
7882;BMP180;3986;41.884;23.466;2022-11-15T14:22:19;91941.00;;;17.30
7882;BMP180;3986;41.884;23.466;2022-11-15T14:25:04;91937.00;;;16.20
7882;BMP180;3986;41.884;23.466;2022-11-15T14:27:32;91952.00;;;15.60
7882;BMP180;3986;41.884;23.466;2022-11-15T14:29:59;91947.00;;;15.60
7882;BMP180;3986;41.884;23.466;2022-11-15T14:32:28;91947.00;;;16.00
7882;BMP180;3986;41.884;23.466;2022-11-15T14:34:57;91905.00;;;16.00
7882;BMP180;3986;41.884;23.466;2022-11-15T14:37:26;91936.00;;;15.40
7882;BMP180;3986;41.884;23.466;2022-11-15T14:39:53;91932.00;;;15.30
7882;BMP180;3986;41.884;23.466;2022-11-15T14:42:22;91934.00;;;15.80
7882;BMP180;3986;41.884;23.466;2022-11-15T14:44:49;91938.00;;;15.40
7882;BMP180;3986;41.884;23.466;2022-11-15T14:47:16;91823.00;;;15.20
7882;BMP180;3986;41.884;23.466;2022-11-15T14:49:45;91939.00;;;14.60
7882;BMP180;3986;41.884;23.466;2022-11-15T14:52:25;91939.00;;;14.90
7882;BMP180;3986;41.884;23.466;2022-11-15T14:54:53;91946.00;;;14.60
7882;BMP180;3986;41.884;23.466;2022-11-15T14:57:20;91934.00;;;15.20
7882;BMP180;3986;41.884;23.466;2022-11-15T14:59:47;91957.00;;;14.90
7882;BMP180;3986;41.884;23.466;2022-11-15T15:02:17;91929.00;;;14.10
7882;BMP180;3986;41.884;23.466;2022-11-15T15:04:46;91939.00;;;14.70
7882;BMP180;3986;41.884;23.466;2022-11-15T15:07:13;91940.00;;;14.80
7882;BMP180;3986;41.884;23.466;2022-11-15T15:09:40;91937.00;;;13.90